createdAt,value
2017-07-01T00:00:41.464Z,13.39
2017-07-01T00:01:41.470Z,13.40
2017-07-01T00:02:41.484Z,13.38
2017-07-01T00:03:42.612Z,13.42
2017-07-01T00:04:43.609Z,13.40
2017-07-01T00:05:37.610Z,13.38
2017-07-01T00:06:37.711Z,13.36
2017-07-01T00:07:32.754Z,13.34
2017-07-01T00:08:27.774Z,13.34
2017-07-01T00:09:27.696Z,13.35
2017-07-01T00:10:22.903Z,13.34
2017-07-01T00:11:17.884Z,13.30
2017-07-01T00:12:17.822Z,13.31
2017-07-01T00:13:12.948Z,13.30
2017-07-01T00:14:08.167Z,13.28
2017-07-01T00:15:09.015Z,13.29
2017-07-01T00:16:10.033Z,13.28
2017-07-01T00:17:05.064Z,13.30
2017-07-01T00:17:59.107Z,13.30
2017-07-01T00:18:59.096Z,13.28
2017-07-01T00:19:59.190Z,13.27
2017-07-01T00:20:54.205Z,13.27
2017-07-01T00:21:48.200Z,13.30
2017-07-01T00:22:36.325Z,13.31
2017-07-01T00:23:30.361Z,13.31
2017-07-01T00:24:25.320Z,13.30
2017-07-01T00:25:26.426Z,13.32
2017-07-01T00:26:26.422Z,13.35
2017-07-01T00:27:14.716Z,13.35
2017-07-01T00:28:09.560Z,13.36
2017-07-01T00:29:03.565Z,13.34
2017-07-01T00:30:03.660Z,13.34
2017-07-01T00:30:58.650Z,13.34
2017-07-01T00:31:46.634Z,13.38
2017-07-01T00:32:35.768Z,13.39
2017-07-01T00:33:30.819Z,13.37
2017-07-01T00:34:19.797Z,13.37
2017-07-01T00:35:08.800Z,13.38
2017-07-01T00:36:02.927Z,13.40
2017-07-01T00:36:56.995Z,13.39
2017-07-01T00:37:56.925Z,13.39
2017-07-01T00:38:50.970Z,13.40
2017-07-01T00:39:45.085Z,13.39
2017-07-01T00:40:34.115Z,13.38
2017-07-01T00:41:23.153Z,13.40
2017-07-01T00:42:12.199Z,13.40
2017-07-01T00:43:06.425Z,13.44
2017-07-01T00:43:54.252Z,13.41
2017-07-01T00:44:43.423Z,13.41
2017-07-01T00:45:43.314Z,13.42
2017-07-01T00:46:37.321Z,13.42
2017-07-01T00:47:37.519Z,13.42
2017-07-01T00:48:37.534Z,13.41
2017-07-01T00:49:31.490Z,13.40
2017-07-01T00:50:37.538Z,13.39
2017-07-01T00:51:32.510Z,13.38
2017-07-01T00:52:21.563Z,13.39
2017-07-01T00:53:22.638Z,13.37
2017-07-01T00:54:22.663Z,13.36
2017-07-01T00:55:16.742Z,13.39
2017-07-01T00:56:10.772Z,13.37
2017-07-01T00:57:10.764Z,13.36
2017-07-01T00:58:05.834Z,13.36
2017-07-01T00:59:05.768Z,13.36
2017-07-01T00:59:59.918Z,13.36
2017-07-01T01:00:59.920Z,13.35
2017-07-01T01:01:54.983Z,13.32
2017-07-01T01:02:55.908Z,13.32
2017-07-01T01:03:56.031Z,13.28
2017-07-01T01:04:56.121Z,13.28
2017-07-01T01:05:51.121Z,13.26
2017-07-01T01:06:40.176Z,13.28
2017-07-01T01:07:29.103Z,13.30
2017-07-01T01:08:24.163Z,13.30
2017-07-01T01:09:18.313Z,13.29
2017-07-01T01:10:13.284Z,13.30
2017-07-01T01:11:13.339Z,13.30
2017-07-01T01:12:07.646Z,13.28
2017-07-01T01:13:07.300Z,13.30
2017-07-01T01:14:02.474Z,13.27
2017-07-01T01:15:08.434Z,13.25
2017-07-01T01:16:03.587Z,13.26
2017-07-01T01:16:57.693Z,13.26
2017-07-01T01:17:57.632Z,13.22
2017-07-01T01:18:57.561Z,13.20
2017-07-01T01:19:57.647Z,13.16
2017-07-01T01:21:03.677Z,13.17
2017-07-01T01:21:58.737Z,13.14
2017-07-01T01:22:58.757Z,13.14
2017-07-01T01:23:52.724Z,13.14
2017-07-01T01:24:52.874Z,13.12
2017-07-01T01:25:46.847Z,13.12
2017-07-01T01:26:35.957Z,13.12
2017-07-01T01:27:24.009Z,13.08
2017-07-01T01:28:11.970Z,13.13
2017-07-01T01:29:07.283Z,13.12
2017-07-01T01:30:01.143Z,13.12
2017-07-01T01:30:50.211Z,13.14
2017-07-01T01:31:44.135Z,13.15
2017-07-01T01:32:39.336Z,13.16
2017-07-01T01:33:33.325Z,13.14
2017-07-01T01:34:28.301Z,13.16
2017-07-01T01:35:22.281Z,13.14
2017-07-01T01:36:22.375Z,13.14
2017-07-01T01:37:17.328Z,13.12
2017-07-01T01:38:11.403Z,13.13
2017-07-01T01:39:11.413Z,13.14
2017-07-01T01:40:11.456Z,13.12
2017-07-01T01:41:06.600Z,13.13
2017-07-01T01:41:55.506Z,13.12
2017-07-01T01:42:44.566Z,13.11
2017-07-01T01:43:32.662Z,13.11
2017-07-01T01:44:20.700Z,13.10
2017-07-01T01:45:21.649Z,13.10
2017-07-01T01:46:15.715Z,13.10
2017-07-01T01:47:09.844Z,13.08
2017-07-01T01:48:09.815Z,13.07
2017-07-01T01:49:10.360Z,13.08
2017-07-01T01:50:04.938Z,13.06
2017-07-01T01:51:04.927Z,13.06
2017-07-01T01:52:05.021Z,13.06
2017-07-01T01:52:59.042Z,13.04
2017-07-01T01:53:59.001Z,13.03
2017-07-01T01:54:54.078Z,13.04
2017-07-01T01:55:54.104Z,13.04
2017-07-01T01:56:48.160Z,13.00
2017-07-01T01:57:48.206Z,13.00
2017-07-01T01:58:43.222Z,13.00
2017-07-01T01:59:38.276Z,12.99
2017-07-01T02:00:39.378Z,12.98
2017-07-01T02:01:39.397Z,12.96
2017-07-01T02:02:34.384Z,12.92
2017-07-01T02:03:34.433Z,12.90
2017-07-01T02:04:28.467Z,12.90
2017-07-01T02:05:28.457Z,12.88
2017-07-01T02:06:17.589Z,12.91
2017-07-01T02:07:06.515Z,12.92
2017-07-01T02:07:54.610Z,12.92
2017-07-01T02:08:54.606Z,12.91
2017-07-01T02:09:54.612Z,12.92
2017-07-01T02:10:49.761Z,12.96
2017-07-01T02:11:43.741Z,12.94
2017-07-01T02:12:43.807Z,12.92
2017-07-01T02:13:38.835Z,12.93
2017-07-01T02:14:33.907Z,12.92
2017-07-01T02:15:33.894Z,12.94
2017-07-01T02:16:27.972Z,12.95
2017-07-01T02:17:28.937Z,12.92
2017-07-01T02:18:29.028Z,12.91
2017-07-01T02:19:24.054Z,12.94
2017-07-01T02:20:18.097Z,12.94
2017-07-01T02:21:12.180Z,12.92
2017-07-01T02:22:01.163Z,12.93
2017-07-01T02:23:01.271Z,12.92
2017-07-01T02:24:01.253Z,12.92
2017-07-01T02:24:55.249Z,12.93
2017-07-01T02:25:55.310Z,12.92
2017-07-01T02:26:50.329Z,12.92
2017-07-01T02:27:45.463Z,12.91
2017-07-01T02:28:45.400Z,12.87
2017-07-01T02:29:40.506Z,12.89
2017-07-01T02:30:35.489Z,12.88
2017-07-01T02:31:35.530Z,12.91
2017-07-01T02:32:29.551Z,12.91
2017-07-01T02:33:24.537Z,12.91
2017-07-01T02:34:13.642Z,12.91
2017-07-01T02:35:01.641Z,12.92
2017-07-01T02:35:56.794Z,12.91
2017-07-01T02:36:56.738Z,12.91
2017-07-01T02:37:44.789Z,12.90
2017-07-01T02:38:38.789Z,12.88
2017-07-01T02:39:32.975Z,12.89
2017-07-01T02:40:32.903Z,12.86
2017-07-01T02:41:32.893Z,12.86
2017-07-01T02:42:27.905Z,12.87
2017-07-01T02:43:22.026Z,12.87
2017-07-01T02:44:22.070Z,12.84
2017-07-01T02:45:16.043Z,12.84
2017-07-01T02:46:17.109Z,12.83
2017-07-01T02:47:17.123Z,12.86
2017-07-01T02:48:05.162Z,12.88
2017-07-01T02:48:54.190Z,12.88
2017-07-01T02:49:42.227Z,12.88
2017-07-01T02:50:42.357Z,12.88
2017-07-01T02:51:31.341Z,12.85
2017-07-01T02:52:19.387Z,12.84
2017-07-01T02:53:08.440Z,12.87
2017-07-01T02:53:56.582Z,12.85
2017-07-01T02:54:45.572Z,12.86
2017-07-01T02:55:34.529Z,12.84
2017-07-01T02:56:22.743Z,12.86
2017-07-01T02:57:16.605Z,12.88
2017-07-01T02:58:16.759Z,12.83
2017-07-01T02:59:11.738Z,12.82
2017-07-01T03:00:05.767Z,12.80
2017-07-01T03:01:00.791Z,12.80
2017-07-01T03:01:54.817Z,12.76
2017-07-01T03:02:54.854Z,12.76
2017-07-01T03:03:54.942Z,12.75
2017-07-01T03:04:49.985Z,12.74
2017-07-01T03:05:45.033Z,12.77
2017-07-01T03:06:46.065Z,12.78
2017-07-01T03:07:40.064Z,12.77
2017-07-01T03:08:28.036Z,12.78
2017-07-01T03:09:28.107Z,12.80
2017-07-01T03:10:28.165Z,12.80
2017-07-01T03:11:23.123Z,12.78
2017-07-01T03:12:12.186Z,12.80
2017-07-01T03:13:00.385Z,12.78
2017-07-01T03:13:55.324Z,12.82
2017-07-01T03:14:44.322Z,12.80
2017-07-01T03:15:39.376Z,12.80
2017-07-01T03:16:27.465Z,12.80
2017-07-01T03:17:28.245Z,12.82
2017-07-01T03:18:28.484Z,12.81
2017-07-01T03:19:23.562Z,12.78
2017-07-01T03:20:17.607Z,12.77
2017-07-01T03:21:17.556Z,12.80
2017-07-01T03:22:06.610Z,12.78
2017-07-01T03:22:54.790Z,12.78
2017-07-01T03:23:54.805Z,12.83
2017-07-01T03:24:42.756Z,12.83
2017-07-01T03:25:43.882Z,12.84
2017-07-01T03:26:38.876Z,12.86
2017-07-01T03:27:27.942Z,12.88
2017-07-01T03:28:17.016Z,12.86
2017-07-01T03:29:18.140Z,12.89
2017-07-01T03:30:18.044Z,12.95
2017-07-01T03:31:13.108Z,12.94
2017-07-01T03:32:13.015Z,12.94
2017-07-01T03:33:08.133Z,12.94
2017-07-01T03:34:02.141Z,12.93
2017-07-01T03:34:57.202Z,12.94
2017-07-01T03:35:51.378Z,12.96
2017-07-01T03:36:46.224Z,12.97
2017-07-01T03:37:46.352Z,13.01
2017-07-01T03:38:40.386Z,12.99
2017-07-01T03:39:40.440Z,13.02
2017-07-01T03:40:35.467Z,12.98
2017-07-01T03:41:23.485Z,13.00
2017-07-01T03:42:24.613Z,13.06
2017-07-01T03:43:25.826Z,13.06
2017-07-01T03:44:20.572Z,13.01
2017-07-01T03:45:15.638Z,12.99
2017-07-01T03:46:03.740Z,13.10
2017-07-01T03:47:09.722Z,13.04
2017-07-01T03:48:04.033Z,13.06
2017-07-01T03:49:03.747Z,13.10
2017-07-01T03:49:58.853Z,13.09
2017-07-01T03:50:47.909Z,13.12
2017-07-01T03:51:41.919Z,13.06
2017-07-01T03:52:41.881Z,13.08
2017-07-01T03:53:47.924Z,13.07
2017-07-01T03:54:42.921Z,13.11
2017-07-01T03:55:32.047Z,13.10
2017-07-01T03:56:32.108Z,13.12
2017-07-01T03:57:26.091Z,13.10
2017-07-01T03:58:14.113Z,13.10
2017-07-01T03:59:03.151Z,13.08
2017-07-01T03:59:51.267Z,13.12
2017-07-01T04:00:45.222Z,13.10
2017-07-01T04:01:45.326Z,13.14
2017-07-01T04:02:34.481Z,13.15
2017-07-01T04:03:28.594Z,13.13
2017-07-01T04:04:22.427Z,13.19
2017-07-01T04:05:11.468Z,13.14
2017-07-01T04:06:05.503Z,13.16
2017-07-01T04:06:54.598Z,13.24
2017-07-01T04:07:54.643Z,13.20
2017-07-01T04:08:54.597Z,13.20
2017-07-01T04:09:54.602Z,13.23
2017-07-01T04:10:54.701Z,13.26
2017-07-01T04:11:49.721Z,13.20
2017-07-01T04:12:38.751Z,13.18
2017-07-01T04:13:32.853Z,13.20
2017-07-01T04:14:26.816Z,13.18
2017-07-01T04:15:15.884Z,13.16
2017-07-01T04:16:04.004Z,13.16
2017-07-01T04:16:57.986Z,13.18
2017-07-01T04:17:52.080Z,13.24
2017-07-01T04:18:53.178Z,13.22
2017-07-01T04:19:48.162Z,13.20
2017-07-01T04:20:36.176Z,13.27
2017-07-01T04:21:30.114Z,13.27
2017-07-01T04:22:30.292Z,13.25
2017-07-01T04:23:18.236Z,13.24
2017-07-01T04:24:13.303Z,13.26
2017-07-01T04:25:13.342Z,13.20
2017-07-01T04:26:08.341Z,13.22
2017-07-01T04:27:02.453Z,13.23
2017-07-01T04:28:02.742Z,13.24
2017-07-01T04:28:57.565Z,13.25
2017-07-01T04:29:45.492Z,13.20
2017-07-01T04:30:40.504Z,13.22
2017-07-01T04:31:40.596Z,13.21
2017-07-01T04:32:40.664Z,13.19
2017-07-01T04:33:40.703Z,13.23
2017-07-01T04:34:35.726Z,13.23
2017-07-01T04:35:29.809Z,13.18
2017-07-01T04:36:18.878Z,13.20
2017-07-01T04:37:13.831Z,13.26
2017-07-01T04:38:07.846Z,13.23
2017-07-01T04:39:07.905Z,13.22
2017-07-01T04:40:02.223Z,13.21
2017-07-01T04:41:02.040Z,13.28
2017-07-01T04:41:57.043Z,13.27
2017-07-01T04:42:52.017Z,13.22
2017-07-01T04:43:52.137Z,13.27
2017-07-01T04:44:46.152Z,13.20
2017-07-01T04:45:41.114Z,13.14
2017-07-01T04:46:41.281Z,13.19
2017-07-01T04:47:35.205Z,13.18
2017-07-01T04:48:35.225Z,13.20
2017-07-01T04:49:24.343Z,13.20
2017-07-01T04:50:18.404Z,13.24
2017-07-01T04:51:12.554Z,13.16
2017-07-01T04:52:12.582Z,13.19
2017-07-01T04:53:01.507Z,13.22
2017-07-01T04:53:55.517Z,13.28
2017-07-01T04:54:50.602Z,13.24
2017-07-01T04:55:50.657Z,13.21
2017-07-01T04:56:45.701Z,13.19
2017-07-01T04:57:34.687Z,13.23
2017-07-01T04:58:29.918Z,13.26
2017-07-01T04:59:23.776Z,13.24
2017-07-01T05:00:12.877Z,13.22
2017-07-01T05:01:06.860Z,13.22
2017-07-01T05:02:07.007Z,13.24
2017-07-01T05:03:01.927Z,13.28
2017-07-01T05:03:56.961Z,13.35
2017-07-01T05:04:58.068Z,13.28
2017-07-01T05:05:52.057Z,13.34
2017-07-01T05:06:46.158Z,13.36
2017-07-01T05:07:47.190Z,13.36
2017-07-01T05:08:41.368Z,13.38
2017-07-01T05:09:35.102Z,13.30
2017-07-01T05:10:35.263Z,13.29
2017-07-01T05:11:24.304Z,13.26
2017-07-01T05:12:19.277Z,13.26
2017-07-01T05:13:19.409Z,13.27
2017-07-01T05:14:14.448Z,13.28
2017-07-01T05:15:08.483Z,13.28
2017-07-01T05:16:02.714Z,13.26
2017-07-01T05:16:57.503Z,13.26
2017-07-01T05:17:57.561Z,13.30
2017-07-01T05:18:52.643Z,13.30
2017-07-01T05:19:47.630Z,13.29
2017-07-01T05:20:47.646Z,13.32
2017-07-01T05:21:41.675Z,13.34
2017-07-01T05:22:30.738Z,13.34
2017-07-01T05:23:24.766Z,13.32
2017-07-01T05:24:19.839Z,13.34
2017-07-01T05:25:14.921Z,13.35
2017-07-01T05:26:03.889Z,13.32
2017-07-01T05:26:51.986Z,13.40
2017-07-01T05:27:41.011Z,13.36
2017-07-01T05:28:30.341Z,13.40
2017-07-01T05:29:24.087Z,13.42
2017-07-01T05:30:18.096Z,13.47
2017-07-01T05:31:18.153Z,13.49
2017-07-01T05:32:12.206Z,13.55
2017-07-01T05:33:06.245Z,13.52
2017-07-01T05:34:06.209Z,13.50
2017-07-01T05:35:00.348Z,13.51
2017-07-01T05:36:00.637Z,13.50
2017-07-01T05:36:49.368Z,13.50
2017-07-01T05:37:49.438Z,13.42
2017-07-01T05:38:43.543Z,13.38
2017-07-01T05:39:31.519Z,13.48
2017-07-01T05:40:20.535Z,13.50
2017-07-01T05:41:20.766Z,13.48
2017-07-01T05:42:14.653Z,13.43
2017-07-01T05:43:09.669Z,13.49
2017-07-01T05:44:03.795Z,13.39
2017-07-01T05:44:57.695Z,13.39
2017-07-01T05:45:52.751Z,13.42
2017-07-01T05:46:46.787Z,13.37
2017-07-01T05:47:46.889Z,13.41
2017-07-01T05:48:40.956Z,13.44
2017-07-01T05:49:40.931Z,13.44
2017-07-01T05:50:40.948Z,13.45
2017-07-01T05:51:29.148Z,13.44
2017-07-01T05:52:23.184Z,13.44
2017-07-01T05:53:11.130Z,13.42
2017-07-01T05:54:12.156Z,13.39
2017-07-01T05:55:07.115Z,13.40
2017-07-01T05:56:02.488Z,13.42
2017-07-01T05:56:51.236Z,13.46
2017-07-01T05:57:40.397Z,13.50
2017-07-01T05:58:28.733Z,13.45
2017-07-01T05:59:16.427Z,13.48
2017-07-01T06:00:10.474Z,13.46
2017-07-01T06:01:05.459Z,13.40
2017-07-01T06:02:05.493Z,13.44
2017-07-01T06:02:54.579Z,13.44
2017-07-01T06:03:48.630Z,13.41
2017-07-01T06:04:42.651Z,13.34
2017-07-01T06:05:36.725Z,13.35
2017-07-01T06:06:36.765Z,13.40
2017-07-01T06:07:31.701Z,13.47
2017-07-01T06:08:20.981Z,13.50
2017-07-01T06:09:08.878Z,13.52
2017-07-01T06:10:03.798Z,13.46
2017-07-01T06:10:58.978Z,13.50
2017-07-01T06:11:47.944Z,13.45
2017-07-01T06:12:36.128Z,13.44
2017-07-01T06:13:30.561Z,13.42
2017-07-01T06:14:25.127Z,13.40
2017-07-01T06:15:19.106Z,13.37
2017-07-01T06:16:14.153Z,13.40
2017-07-01T06:17:08.271Z,13.38
2017-07-01T06:17:57.323Z,13.40
2017-07-01T06:18:52.308Z,13.42
2017-07-01T06:19:40.412Z,13.45
2017-07-01T06:20:29.384Z,13.51
2017-07-01T06:21:24.494Z,13.56
2017-07-01T06:22:19.503Z,13.61
2017-07-01T06:23:14.518Z,13.62
2017-07-01T06:24:08.581Z,13.58
2017-07-01T06:25:02.636Z,13.64
2017-07-01T06:25:50.669Z,13.70
2017-07-01T06:26:39.737Z,13.71
2017-07-01T06:27:33.760Z,13.76
2017-07-01T06:28:27.734Z,13.86
2017-07-01T06:29:16.017Z,13.97
2017-07-01T06:30:09.799Z,13.92
2017-07-01T06:30:58.981Z,13.78
2017-07-01T06:31:48.013Z,13.74
2017-07-01T06:32:37.057Z,13.68
2017-07-01T06:33:31.335Z,13.69
2017-07-01T06:34:20.107Z,13.68
2017-07-01T06:35:08.123Z,13.53
2017-07-01T06:35:57.140Z,13.49
2017-07-01T06:36:51.240Z,13.41
2017-07-01T06:37:40.291Z,13.42
2017-07-01T06:38:40.332Z,13.44
2017-07-01T06:39:34.343Z,13.48
2017-07-01T06:40:28.306Z,13.46
2017-07-01T06:41:16.445Z,13.50
2017-07-01T06:42:16.412Z,13.52
2017-07-01T06:43:05.579Z,13.41
2017-07-01T06:43:59.829Z,13.39
2017-07-01T06:44:54.625Z,13.40
2017-07-01T06:45:48.662Z,13.36
2017-07-01T06:46:36.648Z,13.38
2017-07-01T06:47:30.744Z,13.35
2017-07-01T06:48:24.780Z,13.36
2017-07-01T06:49:24.829Z,13.36
2017-07-01T06:50:12.830Z,13.38
2017-07-01T06:51:07.816Z,13.46
2017-07-01T06:52:01.901Z,13.52
2017-07-01T06:52:49.916Z,13.58
2017-07-01T06:53:45.196Z,13.66
2017-07-01T06:54:40.070Z,13.49
2017-07-01T06:55:35.102Z,13.38
2017-07-01T06:56:23.130Z,13.38
2017-07-01T06:57:23.174Z,13.36
2017-07-01T06:58:17.238Z,13.41
2017-07-01T06:59:11.371Z,13.43
2017-07-01T07:00:06.348Z,13.37
2017-07-01T07:00:54.536Z,13.41
2017-07-01T07:01:54.284Z,13.51
2017-07-01T07:02:43.410Z,13.56
2017-07-01T07:03:37.455Z,13.54
2017-07-01T07:04:37.573Z,13.48
2017-07-01T07:05:26.519Z,13.44
2017-07-01T07:06:20.660Z,13.54
2017-07-01T07:07:14.549Z,13.56
2017-07-01T07:08:03.659Z,13.58
2017-07-01T07:08:57.755Z,13.63
2017-07-01T07:09:57.795Z,13.64
2017-07-01T07:10:45.804Z,13.62
2017-07-01T07:11:33.850Z,13.65
2017-07-01T07:12:27.883Z,13.53
2017-07-01T07:13:16.922Z,13.58
2017-07-01T07:14:04.939Z,13.60
2017-07-01T07:14:53.068Z,13.62
2017-07-01T07:15:47.031Z,13.57
2017-07-01T07:16:36.576Z,13.58
2017-07-01T07:17:25.186Z,13.58
2017-07-01T07:18:19.235Z,13.51
2017-07-01T07:19:07.258Z,13.47
2017-07-01T07:20:01.256Z,13.55
2017-07-01T07:20:49.381Z,13.52
2017-07-01T07:21:38.404Z,13.51
2017-07-01T07:22:32.463Z,13.56
2017-07-01T07:23:20.531Z,13.49
2017-07-01T07:24:08.553Z,13.54
2017-07-01T07:24:57.506Z,13.53
2017-07-01T07:25:45.651Z,13.51
2017-07-01T07:26:39.752Z,13.52
2017-07-01T07:27:27.724Z,13.60
2017-07-01T07:28:22.736Z,13.60
2017-07-01T07:29:16.821Z,13.72
2017-07-01T07:30:22.804Z,13.94
2017-07-01T07:31:17.918Z,14.09
2017-07-01T07:32:06.973Z,14.16
2017-07-01T07:33:06.979Z,14.10
2017-07-01T07:33:56.028Z,14.16
2017-07-01T07:34:45.095Z,14.19
2017-07-01T07:35:34.059Z,14.16
2017-07-01T07:36:23.130Z,14.22
2017-07-01T07:37:18.149Z,14.34
2017-07-01T07:38:18.256Z,14.30
2017-07-01T07:39:12.233Z,14.30
2017-07-01T07:40:06.304Z,14.42
2017-07-01T07:41:01.353Z,14.41
2017-07-01T07:41:55.440Z,14.38
2017-07-01T07:42:49.496Z,14.33
2017-07-01T07:43:43.443Z,14.24
2017-07-01T07:44:31.587Z,14.20
2017-07-01T07:45:20.507Z,14.04
2017-07-01T07:46:14.580Z,13.92
2017-07-01T07:47:03.673Z,13.94
2017-07-01T07:47:58.079Z,13.96
2017-07-01T07:48:45.782Z,14.00
2017-07-01T07:49:34.837Z,14.00
2017-07-01T07:50:28.828Z,13.98
2017-07-01T07:51:28.821Z,14.14
2017-07-01T07:52:22.960Z,14.33
2017-07-01T07:53:11.963Z,14.50
2017-07-01T07:54:05.986Z,14.56
2017-07-01T07:55:00.037Z,14.64
2017-07-01T07:56:01.089Z,14.66
2017-07-01T07:57:02.142Z,14.65
2017-07-01T07:58:02.101Z,14.72
2017-07-01T07:58:51.307Z,14.86
2017-07-01T07:59:45.266Z,15.02
2017-07-01T08:00:39.376Z,15.06
2017-07-01T08:01:28.342Z,14.87
2017-07-01T08:02:17.434Z,14.68
2017-07-01T08:03:11.406Z,14.70
2017-07-01T08:04:00.619Z,14.65
2017-07-01T08:04:54.544Z,14.70
2017-07-01T08:05:48.570Z,14.64
2017-07-01T08:06:36.618Z,14.56
2017-07-01T08:07:36.750Z,14.76
2017-07-01T08:08:25.704Z,14.72
2017-07-01T08:09:19.777Z,14.80
2017-07-01T08:10:08.830Z,14.81
2017-07-01T08:11:09.853Z,14.86
2017-07-01T08:12:10.868Z,14.94
2017-07-01T08:13:10.948Z,15.04
2017-07-01T08:14:04.965Z,15.00
2017-07-01T08:15:05.025Z,14.93
2017-07-01T08:15:53.086Z,15.02
2017-07-01T08:16:54.110Z,14.98
2017-07-01T08:17:49.150Z,15.04
2017-07-01T08:18:43.173Z,15.07
2017-07-01T08:19:37.255Z,15.34
2017-07-01T08:20:25.451Z,15.31
2017-07-01T08:21:20.434Z,15.22
2017-07-01T08:22:09.393Z,15.14
2017-07-01T08:23:03.532Z,15.20
2017-07-01T08:23:51.478Z,15.17
2017-07-01T08:24:46.517Z,15.14
2017-07-01T08:25:35.619Z,15.08
2017-07-01T08:26:29.637Z,14.88
2017-07-01T08:27:18.651Z,14.69
2017-07-01T08:28:07.812Z,14.60
2017-07-01T08:29:07.797Z,14.48
2017-07-01T08:30:01.855Z,14.44
2017-07-01T08:31:01.909Z,14.48
2017-07-01T08:31:56.209Z,14.58
2017-07-01T08:32:43.962Z,14.65
2017-07-01T08:33:33.246Z,14.74
2017-07-01T08:34:33.046Z,14.98
2017-07-01T08:35:28.018Z,15.08
2017-07-01T08:36:23.278Z,15.02
2017-07-01T08:37:23.141Z,15.13
2017-07-01T08:38:12.211Z,15.27
2017-07-01T08:39:06.471Z,15.30
2017-07-01T08:40:07.299Z,15.48
2017-07-01T08:41:07.314Z,15.39
2017-07-01T08:42:02.384Z,15.34
2017-07-01T08:42:57.477Z,15.37
2017-07-01T08:43:57.731Z,15.36
2017-07-01T08:44:52.504Z,15.25
2017-07-01T08:45:47.592Z,15.27
2017-07-01T08:46:41.578Z,15.32
2017-07-01T08:47:41.630Z,15.26
2017-07-01T08:48:29.656Z,15.18
2017-07-01T08:49:24.757Z,15.02
2017-07-01T08:50:19.740Z,14.78
2017-07-01T08:51:07.860Z,14.66
2017-07-01T08:51:56.108Z,14.53
2017-07-01T08:52:51.121Z,14.56
2017-07-01T08:53:51.009Z,14.65
2017-07-01T08:54:45.054Z,14.64
2017-07-01T08:55:33.033Z,14.60
2017-07-01T08:56:27.149Z,14.43
2017-07-01T08:57:21.214Z,14.30
2017-07-01T08:58:15.317Z,14.28
2017-07-01T08:59:16.234Z,14.33
2017-07-01T09:00:11.289Z,14.30
2017-07-01T09:00:59.364Z,14.22
2017-07-01T09:01:48.388Z,14.06
2017-07-01T09:02:37.452Z,13.98
2017-07-01T09:03:31.508Z,13.91
2017-07-01T09:04:25.542Z,13.91
2017-07-01T09:05:25.554Z,13.99
2017-07-01T09:06:20.610Z,14.02
2017-07-01T09:07:14.636Z,14.06
2017-07-01T09:08:14.696Z,14.10
2017-07-01T09:09:09.726Z,14.12
2017-07-01T09:10:03.683Z,14.14
2017-07-01T09:11:03.875Z,14.20
2017-07-01T09:11:57.948Z,14.26
2017-07-01T09:12:45.986Z,14.27
2017-07-01T09:13:40.961Z,14.29
2017-07-01T09:14:30.072Z,14.32
2017-07-01T09:15:19.073Z,14.36
2017-07-01T09:16:07.167Z,14.34
2017-07-01T09:16:56.125Z,14.41
2017-07-01T09:17:51.198Z,14.30
2017-07-01T09:18:45.215Z,14.33
2017-07-01T09:19:39.302Z,14.36
2017-07-01T09:20:33.291Z,14.46
2017-07-01T09:21:28.392Z,14.54
2017-07-01T09:22:17.409Z,14.67
2017-07-01T09:23:06.524Z,14.62
2017-07-01T09:24:00.464Z,14.70
2017-07-01T09:25:00.563Z,14.76
2017-07-01T09:25:54.496Z,14.78
2017-07-01T09:26:48.590Z,14.73
2017-07-01T09:27:42.690Z,14.80
2017-07-01T09:28:38.092Z,14.91
2017-07-01T09:29:32.741Z,14.88
2017-07-01T09:30:32.786Z,14.62
2017-07-01T09:31:20.838Z,14.42
2017-07-01T09:32:14.779Z,14.42
2017-07-01T09:33:08.875Z,14.48
2017-07-01T09:34:08.996Z,14.55
2017-07-01T09:35:03.055Z,14.57
2017-07-01T09:35:58.038Z,14.49
2017-07-01T09:36:47.069Z,14.44
2017-07-01T09:37:42.185Z,14.30
2017-07-01T09:38:30.174Z,14.31
2017-07-01T09:39:24.301Z,14.26
2017-07-01T09:40:24.321Z,14.26
2017-07-01T09:41:13.439Z,14.24
2017-07-01T09:42:07.392Z,14.27
2017-07-01T09:43:01.416Z,14.24
2017-07-01T09:44:01.422Z,14.30
2017-07-01T09:45:01.498Z,14.29
2017-07-01T09:45:49.549Z,14.34
2017-07-01T09:46:43.573Z,14.26
2017-07-01T09:47:37.612Z,14.23
2017-07-01T09:48:32.593Z,14.43
2017-07-01T09:49:32.760Z,14.58
2017-07-01T09:50:21.720Z,14.60
2017-07-01T09:51:16.755Z,14.70
2017-07-01T09:52:16.827Z,14.76
2017-07-01T09:53:05.869Z,14.70
2017-07-01T09:53:53.961Z,14.73
2017-07-01T09:54:53.975Z,14.70
2017-07-01T09:55:43.036Z,14.68
2017-07-01T09:56:31.042Z,14.78
2017-07-01T09:57:26.351Z,14.98
2017-07-01T09:58:26.248Z,15.30
2017-07-01T09:59:14.209Z,15.57
2017-07-01T10:00:08.294Z,15.77
2017-07-01T10:00:57.232Z,15.69
2017-07-01T10:01:45.353Z,15.58
2017-07-01T10:02:45.359Z,15.54
2017-07-01T10:03:34.813Z,15.57
2017-07-01T10:04:28.434Z,15.65
2017-07-01T10:05:28.560Z,15.52
2017-07-01T10:06:22.547Z,15.24
2017-07-01T10:07:22.622Z,15.23
2017-07-01T10:08:16.685Z,15.20
2017-07-01T10:09:10.672Z,15.22
2017-07-01T10:10:04.755Z,15.05
2017-07-01T10:10:53.763Z,15.06
2017-07-01T10:11:48.862Z,15.02
2017-07-01T10:12:36.911Z,15.10
2017-07-01T10:13:26.160Z,14.98
2017-07-01T10:14:15.050Z,14.98
2017-07-01T10:15:04.089Z,14.98
2017-07-01T10:15:53.235Z,15.10
2017-07-01T10:16:47.176Z,15.08
2017-07-01T10:17:36.159Z,15.10
2017-07-01T10:18:30.337Z,15.09
2017-07-01T10:19:25.242Z,15.33
2017-07-01T10:20:13.295Z,15.46
2017-07-01T10:21:07.376Z,15.50
2017-07-01T10:22:07.463Z,15.55
2017-07-01T10:22:56.414Z,15.70
2017-07-01T10:23:50.614Z,15.88
2017-07-01T10:24:50.603Z,15.90
2017-07-01T10:25:45.648Z,16.00
2017-07-01T10:26:40.608Z,16.18
2017-07-01T10:27:41.657Z,16.00
2017-07-01T10:28:41.754Z,15.91
2017-07-01T10:29:36.072Z,15.66
2017-07-01T10:30:30.924Z,15.46
2017-07-01T10:31:24.946Z,15.26
2017-07-01T10:32:18.968Z,14.98
2017-07-01T10:33:18.993Z,14.82
2017-07-01T10:34:14.023Z,14.78
2017-07-01T10:35:08.092Z,14.66
2017-07-01T10:36:02.177Z,14.61
2017-07-01T10:36:50.210Z,14.58
2017-07-01T10:37:44.253Z,14.54
2017-07-01T10:38:32.292Z,14.64
2017-07-01T10:39:26.357Z,14.70
2017-07-01T10:40:14.377Z,14.68
2017-07-01T10:41:08.554Z,14.66
2017-07-01T10:42:02.460Z,14.54
2017-07-01T10:43:02.542Z,14.56
2017-07-01T10:43:56.648Z,14.62
2017-07-01T10:44:51.650Z,14.54
2017-07-01T10:45:39.760Z,14.50
2017-07-01T10:46:34.680Z,14.44
2017-07-01T10:47:28.773Z,14.47
2017-07-01T10:48:16.718Z,14.48
2017-07-01T10:49:04.819Z,14.40
2017-07-01T10:49:52.935Z,14.38
2017-07-01T10:50:47.970Z,14.51
2017-07-01T10:51:41.981Z,14.42
2017-07-01T10:52:37.103Z,14.50
2017-07-01T10:53:31.055Z,14.60
2017-07-01T10:54:31.222Z,14.47
2017-07-01T10:55:25.147Z,14.42
2017-07-01T10:56:13.278Z,14.43
2017-07-01T10:57:07.272Z,14.36
2017-07-01T10:58:01.328Z,14.28
2017-07-01T10:58:49.366Z,14.29
2017-07-01T10:59:43.402Z,14.34
2017-07-01T11:00:32.414Z,14.40
2017-07-01T11:01:27.521Z,14.43
2017-07-01T11:02:22.480Z,14.62
2017-07-01T11:03:22.643Z,14.84
2017-07-01T11:04:10.542Z,14.99
2017-07-01T11:04:59.661Z,15.09
2017-07-01T11:05:59.707Z,14.97
2017-07-01T11:06:48.751Z,15.01
2017-07-01T11:07:37.778Z,15.04
2017-07-01T11:08:25.864Z,15.09
2017-07-01T11:09:13.927Z,15.01
2017-07-01T11:10:07.897Z,14.97
2017-07-01T11:10:57.027Z,14.90
2017-07-01T11:11:45.099Z,15.00
2017-07-01T11:12:40.095Z,14.76
2017-07-01T11:13:34.133Z,14.71
2017-07-01T11:14:28.149Z,14.69
2017-07-01T11:15:17.176Z,14.81
2017-07-01T11:16:18.199Z,14.76
2017-07-01T11:17:18.309Z,14.88
2017-07-01T11:18:13.400Z,14.98
2017-07-01T11:19:07.328Z,14.98
2017-07-01T11:20:02.396Z,14.98
2017-07-01T11:20:50.399Z,15.00
2017-07-01T11:21:38.502Z,14.98
2017-07-01T11:22:32.541Z,14.98
2017-07-01T11:23:26.654Z,14.91
2017-07-01T11:24:14.627Z,14.91
2017-07-01T11:25:08.825Z,15.05
2017-07-01T11:25:57.741Z,15.16
2017-07-01T11:26:52.839Z,15.14
2017-07-01T11:27:41.875Z,15.33
2017-07-01T11:28:37.208Z,15.49
2017-07-01T11:29:30.961Z,15.71
2017-07-01T11:30:26.059Z,16.02
2017-07-01T11:31:20.056Z,16.16
2017-07-01T11:32:21.003Z,16.12
2017-07-01T11:33:15.183Z,16.22
2017-07-01T11:34:09.594Z,16.33
2017-07-01T11:35:04.197Z,16.38
2017-07-01T11:35:59.272Z,16.56
2017-07-01T11:36:48.308Z,16.66
2017-07-01T11:37:42.309Z,16.63
2017-07-01T11:38:42.383Z,16.55